createdAt,value
2023-05-20T00:01:02.006Z,102036.16
2023-05-20T00:03:29.721Z,102032.22
2023-05-20T00:05:56.398Z,102036.59
2023-05-20T00:08:23.059Z,102032.63
2023-05-20T00:10:49.647Z,102025.00
2023-05-20T00:13:16.518Z,102024.56
2023-05-20T00:15:43.099Z,102016.78
2023-05-20T00:18:09.582Z,102015.47
2023-05-20T00:20:36.130Z,102019.75
2023-05-20T00:23:02.807Z,102023.38
2023-05-20T00:25:31.424Z,102016.53
2023-05-20T00:27:58.025Z,102009.69
2023-05-20T00:30:24.581Z,102014.59
2023-05-20T00:32:51.069Z,102017.09
2023-05-20T00:35:17.777Z,102013.22
2023-05-20T00:37:45.559Z,102014.44
2023-05-20T00:40:14.238Z,102015.53
2023-05-20T00:42:42.078Z,102005.63
2023-05-20T00:45:08.998Z,102008.84
2023-05-20T00:47:36.789Z,102014.22
2023-05-20T00:50:04.108Z,102014.66
2023-05-20T00:52:31.982Z,102013.66
2023-05-20T00:54:59.656Z,102014.91
2023-05-20T00:57:26.359Z,102013.38
2023-05-20T00:59:53.375Z,102013.31
2023-05-20T01:02:20.013Z,102007.59
2023-05-20T01:04:47.372Z,102012.31
2023-05-20T01:07:17.470Z,102001.19
2023-05-20T01:09:44.724Z,102010.25
2023-05-20T01:12:23.545Z,102009.03
2023-05-20T01:14:56.761Z,102001.69
2023-05-20T01:17:27.186Z,102003.59
2023-05-20T01:19:56.493Z,102006.22
2023-05-20T01:22:27.485Z,102001.19
2023-05-20T01:24:54.125Z,102005.06
2023-05-20T01:27:22.539Z,101999.22
2023-05-20T01:29:53.140Z,101998.88
2023-05-20T01:32:27.832Z,101995.47
2023-05-20T01:34:56.223Z,101996.47
2023-05-20T01:37:25.184Z,101999.06
2023-05-20T01:39:53.438Z,101999.78
2023-05-20T01:42:21.137Z,101990.34
2023-05-20T01:44:48.356Z,101993.06
2023-05-20T01:47:14.926Z,101999.94
2023-05-20T01:49:41.933Z,101996.16
2023-05-20T01:52:08.480Z,102002.97
2023-05-20T01:54:35.804Z,102001.50
2023-05-20T01:57:02.934Z,101995.56
2023-05-20T01:59:29.484Z,101989.19
2023-05-20T02:01:56.000Z,101992.47
2023-05-20T02:04:22.678Z,101988.63
2023-05-20T02:06:49.272Z,101984.47
2023-05-20T02:09:15.944Z,101993.00
2023-05-20T02:11:42.469Z,101986.41
2023-05-20T02:14:09.008Z,101994.78
2023-05-20T02:16:35.544Z,101998.56
2023-05-20T02:19:02.128Z,101992.31
2023-05-20T02:21:28.744Z,101991.88
2023-05-20T02:23:55.211Z,101997.31
2023-05-20T02:26:22.567Z,101991.69
2023-05-20T02:28:51.065Z,101995.03
2023-05-20T02:31:18.083Z,102002.78
2023-05-20T02:33:45.601Z,101992.78
2023-05-20T02:36:12.440Z,101996.19
2023-05-20T02:38:39.112Z,101989.34
2023-05-20T02:41:05.581Z,101993.94
2023-05-20T02:43:33.140Z,101998.13
2023-05-20T02:46:00.979Z,102003.78
2023-05-20T02:48:27.533Z,101997.25
2023-05-20T02:50:54.263Z,101985.97
2023-05-20T02:53:20.992Z,101991.38
2023-05-20T02:55:48.703Z,101985.50
2023-05-20T02:58:15.326Z,101986.19
2023-05-20T03:00:41.987Z,101987.16
2023-05-20T03:03:10.263Z,101978.06
2023-05-20T03:05:37.607Z,101978.09
2023-05-20T03:08:09.763Z,101983.53
2023-05-20T03:10:39.664Z,101990.28
2023-05-20T03:13:11.404Z,101983.88
2023-05-20T03:15:38.975Z,101994.63
2023-05-20T03:18:06.102Z,101988.38
2023-05-20T03:20:32.786Z,101990.41
2023-05-20T03:22:59.381Z,102000.19
2023-05-20T03:25:26.257Z,101998.78
2023-05-20T03:27:52.840Z,101993.69
2023-05-20T03:30:19.814Z,102000.06
2023-05-20T03:32:47.735Z,102002.53
2023-05-20T03:35:14.517Z,102006.66
2023-05-20T03:37:41.940Z,102003.13
2023-05-20T03:40:12.904Z,102002.53
2023-05-20T03:42:40.531Z,102001.22
2023-05-20T03:45:07.621Z,101998.16
2023-05-20T03:47:40.626Z,101993.31
2023-05-20T03:50:07.801Z,101992.50
2023-05-20T03:52:37.102Z,101995.78
2023-05-20T03:55:04.277Z,101999.34
2023-05-20T03:57:32.127Z,102010.44
2023-05-20T03:59:58.591Z,102004.44
2023-05-20T04:02:25.687Z,102011.00
2023-05-20T04:04:52.850Z,102009.34
2023-05-20T04:07:19.649Z,101997.44
2023-05-20T04:09:46.792Z,102006.88
2023-05-20T04:12:13.862Z,102007.94
2023-05-20T04:14:42.165Z,102003.22
2023-05-20T04:17:09.554Z,102006.41
2023-05-20T04:19:38.137Z,102005.81
2023-05-20T04:22:04.834Z,102000.16
2023-05-20T04:24:31.371Z,102003.34
2023-05-20T04:26:57.837Z,101990.47
2023-05-20T04:29:25.487Z,101998.50
2023-05-20T04:31:52.222Z,101988.00
2023-05-20T04:34:20.325Z,101986.38
2023-05-20T04:36:49.169Z,102001.44
2023-05-20T04:39:15.720Z,101997.00
2023-05-20T04:41:42.329Z,101995.44
2023-05-20T04:44:09.454Z,101992.72
2023-05-20T04:46:36.098Z,101990.63
2023-05-20T04:49:04.473Z,101994.28
2023-05-20T04:51:30.973Z,101991.56
2023-05-20T04:53:58.942Z,101997.34
2023-05-20T04:56:28.312Z,102003.25
2023-05-20T04:58:56.065Z,102003.22
2023-05-20T05:01:22.631Z,101997.44
2023-05-20T05:03:49.241Z,101996.03
2023-05-20T05:06:15.730Z,101989.66
2023-05-20T05:08:42.391Z,102006.63
2023-05-20T05:11:09.181Z,101999.06
2023-05-20T05:13:35.837Z,101990.78
2023-05-20T05:16:03.394Z,101985.69
2023-05-20T05:18:31.560Z,101985.16
2023-05-20T05:21:02.882Z,101986.94
2023-05-20T05:23:29.588Z,101983.59
2023-05-20T05:25:56.524Z,101989.38
2023-05-20T05:28:23.697Z,101979.28
2023-05-20T05:30:50.549Z,101978.97
2023-05-20T05:33:17.540Z,101973.72
2023-05-20T05:35:44.574Z,101966.56
2023-05-20T05:38:11.160Z,101975.78
2023-05-20T05:40:37.648Z,101972.00
2023-05-20T05:43:04.537Z,101964.56
2023-05-20T05:45:31.231Z,101966.31
2023-05-20T05:47:58.632Z,101979.41
2023-05-20T05:50:25.974Z,101969.75
2023-05-20T05:52:53.454Z,101970.31
2023-05-20T05:55:20.889Z,101981.72
2023-05-20T05:57:47.470Z,101975.84
2023-05-20T06:00:17.054Z,101979.00
2023-05-20T06:02:48.124Z,101986.38
2023-05-20T06:05:29.647Z,101973.34
2023-05-20T06:07:56.743Z,101979.66
2023-05-20T06:10:23.764Z,101978.97
2023-05-20T06:12:50.353Z,101986.44
2023-05-20T06:15:17.777Z,101984.78
2023-05-20T06:17:45.279Z,101982.28
2023-05-20T06:20:13.128Z,101991.63
2023-05-20T06:22:39.802Z,101991.94
2023-05-20T06:25:06.841Z,101994.34
2023-05-20T06:27:35.384Z,101989.34
2023-05-20T06:30:02.113Z,101984.06
2023-05-20T06:32:29.350Z,101977.00
2023-05-20T06:34:56.971Z,101982.22
2023-05-20T06:37:24.480Z,101990.50
2023-05-20T06:39:53.748Z,101984.88
2023-05-20T06:42:21.331Z,101981.56
2023-05-20T06:45:02.687Z,101991.13
2023-05-20T06:47:36.195Z,101984.66
2023-05-20T06:50:03.315Z,101986.88
2023-05-20T06:52:30.958Z,101965.69
2023-05-20T06:54:57.437Z,101972.28
2023-05-20T06:57:24.135Z,101969.16
2023-05-20T06:59:50.711Z,101959.34
2023-05-20T07:02:18.521Z,101959.66
2023-05-20T07:04:45.442Z,101965.72
2023-05-20T07:07:12.009Z,101964.38
2023-05-20T07:09:38.769Z,101962.47
2023-05-20T07:12:07.179Z,101958.97
2023-05-20T07:14:33.632Z,101959.78
2023-05-20T07:17:01.984Z,101959.53
2023-05-20T07:19:28.871Z,101962.88
2023-05-20T07:21:55.380Z,101954.66
2023-05-20T07:24:24.416Z,101953.00
2023-05-20T07:26:50.991Z,101956.84
2023-05-20T07:29:17.495Z,101944.00
2023-05-20T07:31:44.430Z,101948.38
2023-05-20T07:34:11.021Z,101945.91
2023-05-20T07:36:38.211Z,101944.25
2023-05-20T07:39:09.530Z,101939.84
2023-05-20T07:41:40.019Z,101944.53
2023-05-20T07:44:08.612Z,101948.00
2023-05-20T07:46:38.289Z,101944.03
2023-05-20T07:49:05.997Z,101943.47
2023-05-20T07:51:33.651Z,101939.00
2023-05-20T07:54:00.162Z,101950.13
2023-05-20T07:56:28.242Z,101938.53
2023-05-20T07:58:58.150Z,101930.88
2023-05-20T08:01:27.977Z,101919.09
2023-05-20T08:03:55.415Z,101923.16
2023-05-20T08:06:29.469Z,101924.75
2023-05-20T08:08:57.121Z,101922.13
2023-05-20T08:11:29.229Z,101917.06
2023-05-20T08:13:56.990Z,101929.75
2023-05-20T08:16:26.277Z,101917.28
2023-05-20T08:18:52.838Z,101913.97
2023-05-20T08:21:21.623Z,101915.13
2023-05-20T08:23:48.307Z,101909.66
2023-05-20T08:26:14.771Z,101908.91
2023-05-20T08:28:42.576Z,101906.00
2023-05-20T08:31:09.727Z,101912.25
2023-05-20T08:33:36.702Z,101899.25
2023-05-20T08:36:03.389Z,101912.06
2023-05-20T08:38:29.932Z,101904.78
2023-05-20T08:40:57.180Z,101905.84
2023-05-20T08:43:25.060Z,101906.75
2023-05-20T08:45:52.721Z,101905.00
2023-05-20T08:48:22.991Z,101915.81
2023-05-20T08:50:53.707Z,101924.03
2023-05-20T08:53:23.644Z,101913.28
2023-05-20T08:55:55.395Z,101917.78
2023-05-20T08:58:23.354Z,101915.94
2023-05-20T09:00:51.136Z,101908.84
2023-05-20T09:03:18.508Z,101908.50
2023-05-20T09:05:45.185Z,101905.16
2023-05-20T09:08:12.247Z,101898.66
2023-05-20T09:10:40.571Z,101917.47
2023-05-20T09:13:07.994Z,101902.44
2023-05-20T09:15:35.638Z,101904.91
2023-05-20T09:18:04.285Z,101892.00
2023-05-20T09:20:34.017Z,101900.66
2023-05-20T09:23:02.936Z,101894.25
2023-05-20T09:25:29.603Z,101905.69
2023-05-20T09:27:56.769Z,101897.38
2023-05-20T09:30:24.283Z,101906.66
2023-05-20T09:32:58.711Z,101896.72
2023-05-20T09:35:26.538Z,101896.03
2023-05-20T09:37:57.219Z,101888.72
2023-05-20T09:40:28.219Z,101883.13
2023-05-20T09:43:02.658Z,101891.47
2023-05-20T09:45:29.608Z,101892.19
2023-05-20T09:47:56.846Z,101883.59
2023-05-20T09:50:27.312Z,101887.69
2023-05-20T09:52:55.194Z,101889.31
2023-05-20T09:55:24.266Z,101880.56
2023-05-20T09:57:51.777Z,101888.34
2023-05-20T10:00:19.543Z,101893.00
2023-05-20T10:02:53.403Z,101884.75
2023-05-20T10:05:27.059Z,101887.78
2023-05-20T10:08:18.851Z,101888.44
2023-05-20T10:10:51.180Z,101885.63
2023-05-20T10:13:24.227Z,101885.16
2023-05-20T10:15:58.862Z,101882.56
2023-05-20T10:19:06.762Z,101892.47
2023-05-20T10:21:33.370Z,101879.69
2023-05-20T10:24:10.503Z,101884.66
2023-05-20T10:26:42.601Z,101885.50
2023-05-20T10:29:16.953Z,101885.47
2023-05-20T10:31:46.773Z,101880.63
2023-05-20T10:34:18.215Z,101877.66
2023-05-20T10:36:48.324Z,101884.69
2023-05-20T10:39:18.878Z,101875.56
2023-05-20T10:41:45.712Z,101884.09
2023-05-20T10:44:12.309Z,101879.53
2023-05-20T10:46:54.398Z,101881.97
2023-05-20T10:49:34.856Z,101885.91
2023-05-20T10:52:01.812Z,101880.59
2023-05-20T10:54:29.384Z,101879.78
2023-05-20T10:56:55.856Z,101877.09
2023-05-20T10:59:22.849Z,101879.78
2023-05-20T11:01:49.645Z,101863.78
2023-05-20T11:04:19.845Z,101866.34
2023-05-20T11:06:57.023Z,101870.22
2023-05-20T11:09:23.892Z,101870.31
2023-05-20T11:11:52.416Z,101873.66
2023-05-20T11:14:21.599Z,101871.22
2023-05-20T11:16:53.159Z,101872.50
2023-05-20T11:19:20.252Z,101864.00
2023-05-20T11:21:47.694Z,101862.47
2023-05-20T11:24:24.264Z,101856.78
2023-05-20T11:26:50.782Z,101849.38
2023-05-20T11:29:17.838Z,101842.31
2023-05-20T11:31:44.530Z,101838.22
2023-05-20T11:34:11.164Z,101838.78
2023-05-20T11:36:43.911Z,101827.81
2023-05-20T11:39:13.541Z,101817.88
2023-05-20T11:41:40.012Z,101819.38
2023-05-20T11:44:11.096Z,101823.69
2023-05-20T11:46:47.405Z,101819.50
2023-05-20T11:49:15.134Z,101828.97
2023-05-20T11:51:43.276Z,101812.97
2023-05-20T11:54:10.570Z,101813.81
2023-05-20T11:56:38.452Z,101813.00
2023-05-20T11:59:06.519Z,101813.28
2023-05-20T12:01:37.614Z,101804.44
2023-05-20T12:04:05.597Z,101811.78
2023-05-20T12:06:32.669Z,101806.44
2023-05-20T12:09:06.719Z,101801.31
2023-05-20T12:11:35.656Z,101804.44
2023-05-20T12:14:03.859Z,101776.31
2023-05-20T12:16:31.978Z,101764.22
2023-05-20T12:18:58.871Z,101768.41
2023-05-20T12:21:25.477Z,101770.72
2023-05-20T12:23:57.409Z,101773.22
2023-05-20T12:26:25.776Z,101762.28
2023-05-20T12:28:52.542Z,101767.66
2023-05-20T12:31:19.710Z,101762.56
2023-05-20T12:33:46.825Z,101763.22
2023-05-20T12:36:14.498Z,101751.78
2023-05-20T12:38:41.260Z,101749.94
2023-05-20T12:41:08.085Z,101747.69
2023-05-20T12:43:37.356Z,101754.56
2023-05-20T12:46:04.194Z,101735.81
2023-05-20T12:48:30.860Z,101738.16
2023-05-20T12:50:57.379Z,101746.72
2023-05-20T12:53:24.111Z,101743.56
2023-05-20T12:55:50.657Z,101748.25
2023-05-20T12:58:17.805Z,101737.09
2023-05-20T13:00:44.766Z,101735.53
2023-05-20T13:03:11.766Z,101736.38
2023-05-20T13:05:39.049Z,101738.19
2023-05-20T13:08:05.832Z,101733.38
2023-05-20T13:10:33.384Z,101727.22
2023-05-20T13:13:00.042Z,101735.28
2023-05-20T13:15:27.264Z,101731.63
2023-05-20T13:17:54.382Z,101730.47
2023-05-20T13:20:21.432Z,101721.09
2023-05-20T13:22:48.770Z,101720.91
2023-05-20T13:25:15.253Z,101723.78
2023-05-20T13:27:41.708Z,101722.50
2023-05-20T13:30:08.562Z,101721.03
2023-05-20T13:32:35.196Z,101728.50
2023-05-20T13:35:02.923Z,101711.97
2023-05-20T13:37:29.992Z,101713.91
2023-05-20T13:39:56.550Z,101714.56
2023-05-20T13:42:23.303Z,101708.56
2023-05-20T13:44:49.920Z,101710.09
2023-05-20T13:47:16.516Z,101707.66
2023-05-20T13:49:43.476Z,101708.78
2023-05-20T13:52:09.902Z,101707.28
2023-05-20T13:54:36.455Z,101704.97
2023-05-20T13:57:07.832Z,101703.66
2023-05-20T13:59:35.070Z,101699.47
2023-05-20T14:02:02.134Z,101700.38
2023-05-20T14:04:29.045Z,101706.94
2023-05-20T14:06:55.748Z,101702.53
2023-05-20T14:09:22.293Z,101687.16
2023-05-20T14:11:48.988Z,101684.00
2023-05-20T14:14:15.434Z,101681.84
2023-05-20T14:16:42.065Z,101684.38
2023-05-20T14:19:09.249Z,101692.03
2023-05-20T14:21:35.828Z,101684.59
2023-05-20T14:24:02.364Z,101687.94
2023-05-20T14:26:28.837Z,101684.09
2023-05-20T14:28:55.457Z,101680.78
2023-05-20T14:31:21.910Z,101675.75
2023-05-20T14:33:49.284Z,101676.75
2023-05-20T14:36:15.965Z,101663.59
2023-05-20T14:38:42.661Z,101677.13
2023-05-20T14:41:09.746Z,101670.72
2023-05-20T14:43:36.693Z,101667.03
2023-05-20T14:46:03.443Z,101670.16
2023-05-20T14:48:29.904Z,101661.38
2023-05-20T14:50:56.328Z,101663.47
2023-05-20T14:53:23.254Z,101662.34
2023-05-20T14:55:49.876Z,101658.72
2023-05-20T14:58:16.586Z,101661.28
2023-05-20T15:00:43.686Z,101655.03
2023-05-20T15:03:10.300Z,101661.25
2023-05-20T15:05:36.996Z,101661.03
2023-05-20T15:08:03.758Z,101648.03
2023-05-20T15:10:30.635Z,101644.06
2023-05-20T15:12:57.096Z,101645.16
2023-05-20T15:15:23.783Z,101647.66
2023-05-20T15:17:50.629Z,101656.47
2023-05-20T15:20:17.664Z,101657.19
2023-05-20T15:22:48.259Z,101653.78
2023-05-20T15:25:15.084Z,101657.59
2023-05-20T15:27:42.342Z,101658.03
2023-05-20T15:30:09.853Z,101653.38
2023-05-20T15:32:36.497Z,101647.78
2023-05-20T15:35:04.210Z,101660.22
2023-05-20T15:37:30.718Z,101651.84
2023-05-20T15:39:57.183Z,101647.13
2023-05-20T15:42:23.721Z,101649.28
2023-05-20T15:44:50.286Z,101655.28
2023-05-20T15:47:16.902Z,101646.25
2023-05-20T15:49:44.176Z,101645.69
2023-05-20T15:52:10.764Z,101640.34
2023-05-20T15:54:37.238Z,101633.53
2023-05-20T15:57:03.908Z,101620.91
2023-05-20T15:59:30.371Z,101621.69
2023-05-20T16:01:56.937Z,101621.44
2023-05-20T16:04:23.499Z,101627.69
2023-05-20T16:06:50.668Z,101623.03
2023-05-20T16:09:17.461Z,101624.16
2023-05-20T16:11:44.416Z,101630.38
2023-05-20T16:14:11.091Z,101630.31
2023-05-20T16:16:37.677Z,101629.88
2023-05-20T16:19:04.269Z,101617.69
2023-05-20T16:21:31.281Z,101612.50
2023-05-20T16:23:57.742Z,101605.44
2023-05-20T16:26:25.002Z,101606.34
2023-05-20T16:28:51.712Z,101605.75
2023-05-20T16:31:18.304Z,101594.63
2023-05-20T16:33:44.874Z,101596.00
2023-05-20T16:36:12.084Z,101596.81
2023-05-20T16:38:38.921Z,101600.06
2023-05-20T16:41:05.467Z,101596.72
2023-05-20T16:43:31.888Z,101594.44
2023-05-20T16:45:58.524Z,101593.06
2023-05-20T16:48:25.586Z,101593.06
2023-05-20T16:50:52.013Z,101588.97
2023-05-20T16:53:18.846Z,101595.50
2023-05-20T16:55:46.026Z,101599.47
2023-05-20T16:58:12.610Z,101593.97
2023-05-20T17:00:39.159Z,101587.47
2023-05-20T17:03:05.634Z,101585.97
2023-05-20T17:05:32.134Z,101580.47
2023-05-20T17:08:00.325Z,101580.25
2023-05-20T17:10:28.762Z,101572.91
2023-05-20T17:12:55.582Z,101575.06
2023-05-20T17:15:23.311Z,101578.09
2023-05-20T17:17:50.564Z,101584.31
2023-05-20T17:20:17.902Z,101580.41
2023-05-20T17:22:44.769Z,101582.56
2023-05-20T17:25:11.370Z,101582.63
2023-05-20T17:27:38.285Z,101589.53
2023-05-20T17:30:05.494Z,101578.84
2023-05-20T17:32:31.933Z,101587.38
2023-05-20T17:34:58.561Z,101584.63
2023-05-20T17:37:25.191Z,101580.03
2023-05-20T17:39:51.896Z,101579.47
2023-05-20T17:42:18.637Z,101580.41
2023-05-20T17:44:45.955Z,101571.38
2023-05-20T17:47:12.520Z,101571.94
2023-05-20T17:49:39.070Z,101582.56
2023-05-20T17:52:05.990Z,101574.50
2023-05-20T17:54:32.485Z,101585.00
2023-05-20T17:56:59.055Z,101579.28
2023-05-20T17:59:25.832Z,101580.91
2023-05-20T18:01:52.867Z,101572.19
2023-05-20T18:04:21.305Z,101562.66
2023-05-20T18:06:48.014Z,101570.09
2023-05-20T18:09:14.520Z,101572.69
2023-05-20T18:11:40.992Z,101573.84
2023-05-20T18:14:10.338Z,101579.50
2023-05-20T18:16:39.568Z,101576.75
2023-05-20T18:19:06.374Z,101588.16
2023-05-20T18:21:32.812Z,101584.84
2023-05-20T18:23:59.289Z,101580.00
2023-05-20T18:26:26.467Z,101586.91
2023-05-20T18:28:53.034Z,101584.97
2023-05-20T18:31:19.810Z,101578.84
2023-05-20T18:33:46.652Z,101585.41
2023-05-20T18:36:13.323Z,101578.03
2023-05-20T18:38:41.479Z,101581.44
2023-05-20T18:41:08.737Z,101579.63
2023-05-20T18:43:35.516Z,101578.19
2023-05-20T18:46:02.357Z,101578.28
2023-05-20T18:48:29.022Z,101590.75
2023-05-20T18:50:56.332Z,101588.00
2023-05-20T18:53:23.808Z,101585.84
2023-05-20T18:55:55.763Z,101591.69
2023-05-20T18:58:22.343Z,101592.53
2023-05-20T19:00:49.091Z,101585.97
2023-05-20T19:03:15.818Z,101587.03
2023-05-20T19:05:42.357Z,101584.38
2023-05-20T19:08:09.236Z,101588.28
2023-05-20T19:10:35.698Z,101585.06
2023-05-20T19:13:02.146Z,101582.22
2023-05-20T19:15:30.142Z,101584.19
2023-05-20T19:17:56.689Z,101581.78
2023-05-20T19:20:23.182Z,101575.50
2023-05-20T19:22:49.677Z,101576.59
2023-05-20T19:25:16.340Z,101582.72
2023-05-20T19:27:42.845Z,101581.03
2023-05-20T19:30:11.018Z,101581.63
2023-05-20T19:32:38.713Z,101584.31
2023-05-20T19:35:06.125Z,101578.28
2023-05-20T19:37:32.760Z,101578.34
2023-05-20T19:39:59.422Z,101581.91
2023-05-20T19:42:25.856Z,101586.28
2023-05-20T19:44:53.522Z,101586.19
2023-05-20T19:47:20.092Z,101595.22
2023-05-20T19:49:46.848Z,101591.34
2023-05-20T19:52:13.377Z,101585.50
2023-05-20T19:54:41.639Z,101589.69
2023-05-20T19:57:08.079Z,101590.25
2023-05-20T19:59:36.261Z,101588.59
2023-05-20T20:02:03.878Z,101587.34
2023-05-20T20:04:30.546Z,101587.59
2023-05-20T20:06:57.048Z,101578.63
2023-05-20T20:09:23.490Z,101589.59
2023-05-20T20:11:50.098Z,101588.75
2023-05-20T20:14:16.577Z,101583.59
2023-05-20T20:16:46.567Z,101595.41
2023-05-20T20:19:13.221Z,101589.13
2023-05-20T20:21:40.307Z,101588.59
2023-05-20T20:24:06.813Z,101582.78
2023-05-20T20:26:34.524Z,101588.84
2023-05-20T20:29:00.984Z,101578.22
2023-05-20T20:31:27.553Z,101581.56
2023-05-20T20:33:54.123Z,101580.44
2023-05-20T20:36:20.793Z,101577.25
2023-05-20T20:38:47.274Z,101581.38
2023-05-20T20:41:16.178Z,101573.44
2023-05-20T20:43:45.914Z,101577.34
2023-05-20T20:46:15.648Z,101581.75
2023-05-20T20:48:45.855Z,101577.66
2023-05-20T20:51:13.597Z,101568.97
2023-05-20T20:53:43.430Z,101573.97
2023-05-20T20:56:10.048Z,101567.69
2023-05-20T20:58:37.467Z,101567.44
2023-05-20T21:01:05.694Z,101575.97
2023-05-20T21:03:39.943Z,101570.03
2023-05-20T21:06:07.467Z,101562.69
2023-05-20T21:08:33.938Z,101572.84
2023-05-20T21:11:00.444Z,101572.56
2023-05-20T21:13:28.584Z,101572.00
2023-05-20T21:15:55.271Z,101571.50
2023-05-20T21:18:22.846Z,101559.47
2023-05-20T21:20:53.711Z,101557.91
2023-05-20T21:23:21.229Z,101570.44
2023-05-20T21:25:48.721Z,101561.47
2023-05-20T21:28:16.022Z,101562.03
2023-05-20T21:30:42.524Z,101560.09
2023-05-20T21:33:09.048Z,101559.91
2023-05-20T21:35:35.709Z,101565.59
2023-05-20T21:38:02.812Z,101557.97
2023-05-20T21:40:29.265Z,101562.31
2023-05-20T21:42:55.794Z,101564.00
2023-05-20T21:45:22.203Z,101558.50
2023-05-20T21:47:48.824Z,101549.19
2023-05-20T21:50:15.533Z,101547.53
2023-05-20T21:52:42.014Z,101550.28
2023-05-20T21:55:09.729Z,101549.16
2023-05-20T21:57:36.538Z,101540.75
2023-05-20T22:00:15.117Z,101539.34
2023-05-20T22:02:45.977Z,101529.78
2023-05-20T22:05:12.875Z,101535.22
2023-05-20T22:07:43.078Z,101532.25
2023-05-20T22:10:10.701Z,101530.63
2023-05-20T22:12:38.035Z,101522.16
2023-05-20T22:15:05.659Z,101526.53
2023-05-20T22:17:39.366Z,101514.84
2023-05-20T22:20:10.459Z,101518.66
2023-05-20T22:22:39.038Z,101529.59
2023-05-20T22:25:06.667Z,101516.00
2023-05-20T22:27:34.756Z,101509.63
2023-05-20T22:30:01.639Z,101505.56
2023-05-20T22:32:28.046Z,101504.19
2023-05-20T22:34:58.379Z,101498.50
2023-05-20T22:37:26.647Z,101500.09
2023-05-20T22:39:53.085Z,101488.94
2023-05-20T22:42:19.588Z,101483.50
2023-05-20T22:44:46.166Z,101482.66
2023-05-20T22:47:12.629Z,101475.59
2023-05-20T22:49:40.375Z,101477.53
2023-05-20T22:52:07.703Z,101468.78
2023-05-20T22:54:34.822Z,101475.91
2023-05-20T22:57:01.348Z,101464.69
2023-05-20T22:59:31.054Z,101462.53
2023-05-20T23:01:57.634Z,101458.72
2023-05-20T23:04:24.178Z,101464.69
2023-05-20T23:06:53.721Z,101452.97
2023-05-20T23:09:21.109Z,101458.72
2023-05-20T23:11:47.776Z,101453.53
2023-05-20T23:14:14.528Z,101452.72
2023-05-20T23:16:41.984Z,101447.56
2023-05-20T23:19:08.854Z,101448.91
2023-05-20T23:21:35.405Z,101445.09
2023-05-20T23:24:01.853Z,101438.25
2023-05-20T23:26:28.786Z,101439.91
2023-05-20T23:28:55.344Z,101441.56
2023-05-20T23:31:22.541Z,101435.81
2023-05-20T23:33:49.654Z,101441.28
2023-05-20T23:36:17.066Z,101435.28
2023-05-20T23:38:43.754Z,101435.81
2023-05-20T23:41:10.252Z,101438.03
2023-05-20T23:43:36.859Z,101434.50
2023-05-20T23:46:03.356Z,101431.47
2023-05-20T23:48:29.829Z,101435.31
2023-05-20T23:50:56.295Z,101431.78
2023-05-20T23:53:22.764Z,101433.38
2023-05-20T23:55:49.715Z,101435.03
2023-05-20T23:58:16.749Z,101429.03
